Time;durP1;ratioP1;P1;durP2;ratioP2;P2;SDS_P1;SDS_P2;PMS_P1;PMS_P2;Temp;Humidity;BMP_temperature;BMP_pressure;BME280_temperature;BME280_humidity;BME280_pressure;Samples;Min_cycle;Max_cycle;Signal;HPM_P1;HPM_P2
2023/06/13 00:01:50;;;;;;;76.47;2.47;;;22.80;18.00;;;;;;4953403;29;20190;-73
2023/06/13 00:04:21;;;;;;;76.30;2.30;;;22.80;18.20;;;;;;4954723;28;20214;-73
2023/06/13 00:06:48;;;;;;;76.10;2.40;;;22.70;18.10;;;;;;4954509;28;20158;-73
2023/06/13 00:09:15;;;;;;;76.60;2.27;;;22.60;18.10;;;;;;4954531;28;20407;-73
2023/06/13 00:11:40;;;;;;;76.97;2.67;;;22.40;18.10;;;;;;4954750;28;20514;-72
2023/06/13 00:14:06;;;;;;;76.23;2.00;;;22.10;18.50;;;;;;4954475;28;20917;-73
2023/06/13 00:16:32;;;;;;;76.83;2.60;;;22.30;18.70;;;;;;4954529;28;20259;-74
2023/06/13 00:18:58;;;;;;;78.47;2.53;;;22.00;18.60;;;;;;4954423;28;20195;-72
2023/06/13 00:21:24;;;;;;;76.60;2.10;;;21.90;18.90;;;;;;4954646;28;20642;-74
2023/06/13 00:23:49;;;;;;;76.30;2.17;;;22.10;19.60;;;;;;4954249;28;20440;-73
2023/06/13 00:26:15;;;;;;;76.10;2.00;;;21.90;19.00;;;;;;4955384;28;20175;-73
2023/06/13 00:28:40;;;;;;;76.60;2.30;;;21.90;18.80;;;;;;4957208;28;20175;-74
2023/06/13 00:31:06;;;;;;;76.17;2.00;;;22.10;19.20;;;;;;4957458;28;20637;-74
2023/06/13 00:33:33;;;;;;;77.70;3.00;;;22.30;18.50;;;;;;4957054;28;20285;-73
2023/06/13 00:35:59;;;;;;;77.50;2.60;;;22.10;19.20;;;;;;4956148;28;20183;-75
2023/06/13 00:38:24;;;;;;;76.47;2.30;;;22.30;19.00;;;;;;4955523;28;20422;-73
2023/06/13 00:40:51;;;;;;;77.07;2.10;;;22.30;19.30;;;;;;4953156;29;20203;-73
2023/06/13 00:43:17;;;;;;;77.07;2.50;;;22.50;18.60;;;;;;4954488;28;20203;-73
2023/06/13 00:45:43;;;;;;;76.70;2.37;;;22.30;18.40;;;;;;4954428;28;20777;-73
2023/06/13 00:48:09;;;;;;;77.60;2.60;;;24.80;21.20;;;;;;4954006;28;20497;-73
2023/06/13 00:50:40;;;;;;;76.70;2.23;;;21.90;19.40;;;;;;4954364;28;20594;-73
2023/06/13 00:53:16;;;;;;;77.63;2.80;;;21.80;19.40;;;;;;4954128;28;20442;-73
2023/06/13 00:55:42;;;;;;;77.03;2.40;;;21.90;19.50;;;;;;4953636;28;20417;-73
2023/06/13 00:58:10;;;;;;;77.50;2.53;;;22.00;19.40;;;;;;4954256;28;21326;-73
2023/06/13 01:00:39;;;;;;;77.10;2.67;;;22.00;19.10;;;;;;4953755;28;20481;-70
2023/06/13 01:03:10;;;;;;;77.60;2.40;;;21.70;19.60;;;;;;4953756;28;20450;-73
2023/06/13 01:05:39;;;;;;;77.37;2.57;;;21.60;20.90;;;;;;4987270;23;20559;-71
2023/06/13 01:08:26;;;;;;;76.80;2.37;;;21.50;20.00;;;;;;4972382;28;20446;-69
2023/06/13 01:11:32;;;;;;;77.47;2.60;;;21.50;20.90;;;;;;4972732;28;20445;-68
2023/06/13 01:14:03;;;;;;;76.87;2.10;;;21.70;20.40;;;;;;4971970;28;20426;-73
2023/06/13 01:16:39;;;;;;;77.13;2.20;;;21.50;20.90;;;;;;4953127;28;20481;-69
2023/06/13 01:19:18;;;;;;;76.70;2.30;;;21.40;20.20;;;;;;4952970;28;21007;-70
2023/06/13 01:21:45;;;;;;;77.33;2.40;;;21.30;21.00;;;;;;4953347;28;20888;-73
2023/06/13 01:24:19;;;;;;;77.47;2.40;;;21.40;20.20;;;;;;4952177;29;20514;-70
2023/06/13 01:26:50;;;;;;;76.97;2.13;;;21.40;20.60;;;;;;4952903;28;20391;-70
2023/06/13 01:29:17;;;;;;;78.47;2.77;;;21.60;20.90;;;;;;4953561;28;20522;-69
2023/06/13 01:31:46;;;;;;;77.47;2.50;;;21.70;20.10;;;;;;4953187;28;20429;-68
2023/06/13 01:34:14;;;;;;;76.87;2.30;;;21.10;20.80;;;;;;4953336;28;20907;-68
2023/06/13 01:36:39;;;;;;;77.90;2.50;;;20.90;21.70;;;;;;4952838;28;20413;-69
2023/06/13 01:39:05;;;;;;;77.47;2.20;;;21.00;20.90;;;;;;4953314;28;20524;-69
2023/06/13 01:41:31;;;;;;;77.20;2.13;;;21.30;20.90;;;;;;4953325;28;20530;-71
2023/06/13 01:43:56;;;;;;;77.33;2.20;;;21.40;20.60;;;;;;4953329;28;20176;-73
2023/06/13 01:46:26;;;;;;;77.43;2.30;;;21.40;21.20;;;;;;4952908;28;20222;-71
2023/06/13 01:49:02;;;;;;;77.63;2.43;;;21.40;20.90;;;;;;4953644;28;20181;-69
2023/06/13 01:51:37;;;;;;;78.17;2.40;;;21.30;21.50;;;;;;4953264;28;20457;-69
2023/06/13 01:54:09;;;;;;;77.63;2.37;;;21.10;20.90;;;;;;4953419;28;20397;-70
2023/06/13 01:56:38;;;;;;;77.37;2.00;;;21.20;21.40;;;;;;4952941;28;20914;-70
2023/06/13 01:59:06;;;;;;;77.90;2.27;;;21.00;20.80;;;;;;4953022;28;20517;-69
2023/06/13 02:01:33;;;;;;;77.67;2.40;;;20.90;21.20;;;;;;4952990;28;20427;-69
2023/06/13 02:03:59;;;;;;;80.47;2.80;;;20.90;21.00;;;;;;4953139;28;20500;-68
2023/06/13 02:06:26;;;;;;;77.97;2.50;;;21.10;21.30;;;;;;4952751;28;20523;-69
2023/06/13 02:08:52;;;;;;;77.50;2.10;;;21.00;21.50;;;;;;4952932;28;20416;-69
2023/06/13 02:11:18;;;;;;;77.93;2.40;;;20.90;21.80;;;;;;4952979;28;20410;-69
2023/06/13 02:13:44;;;;;;;77.63;2.10;;;21.00;21.50;;;;;;4952767;28;20424;-69
2023/06/13 02:16:11;;;;;;;78.10;2.30;;;21.10;21.30;;;;;;4952760;28;20200;-70
2023/06/13 02:18:37;;;;;;;77.97;2.40;;;20.90;20.90;;;;;;4952883;28;20177;-69
2023/06/13 02:21:03;;;;;;;80.27;2.27;;;20.70;21.30;;;;;;4952893;28;20508;-69
2023/06/13 02:23:28;;;;;;;77.50;2.10;;;20.80;22.10;;;;;;4952945;28;20406;-70
2023/06/13 02:25:55;;;;;;;78.10;2.20;;;20.80;21.20;;;;;;4952486;28;20434;-69
2023/06/13 02:28:21;;;;;;;77.70;2.20;;;21.00;21.80;;;;;;4952944;28;20169;-69
2023/06/13 02:30:47;;;;;;;78.00;2.47;;;21.10;21.60;;;;;;4953180;28;20599;-68
2023/06/13 02:33:13;;;;;;;78.00;2.23;;;21.20;20.50;;;;;;4956342;28;20173;-69
2023/06/13 02:35:39;;;;;;;77.70;2.20;;;21.40;21.40;;;;;;4955866;28;20431;-69
2023/06/13 02:38:06;;;;;;;77.67;2.17;;;21.20;21.70;;;;;;4956261;28;20923;-69
2023/06/13 02:40:32;;;;;;;78.37;2.30;;;21.00;21.00;;;;;;4955807;28;20204;-72
2023/06/13 02:43:00;;;;;;;78.33;2.57;;;21.00;21.20;;;;;;4956100;28;20409;-71
2023/06/13 02:45:26;;;;;;;77.93;2.13;;;21.20;20.70;;;;;;4955695;28;20458;-73
2023/06/13 02:47:52;;;;;;;77.93;2.23;;;21.20;22.20;;;;;;4956030;28;20836;-68
2023/06/13 02:50:17;;;;;;;78.07;2.30;;;20.90;21.50;;;;;;4956015;28;20170;-69
2023/06/13 02:52:43;;;;;;;78.63;2.60;;;20.80;22.00;;;;;;4956414;28;20231;-73
2023/06/13 02:55:10;;;;;;;79.57;3.33;;;20.90;21.70;;;;;;4955317;28;20226;-69
2023/06/13 02:57:39;;;;;;;78.27;2.30;;;21.10;21.60;;;;;;4955810;28;20179;-69
2023/06/13 03:00:12;;;;;;;78.53;2.30;;;21.10;21.50;;;;;;4955715;28;20469;-69
2023/06/13 03:02:38;;;;;;;78.63;2.43;;;21.00;21.80;;;;;;4955776;28;20448;-68
2023/06/13 03:05:11;;;;;;;78.07;2.00;;;20.80;20.80;;;;;;4955187;28;20949;-69
2023/06/13 03:07:42;;;;;;;78.40;2.40;;;20.80;21.40;;;;;;4956020;28;20424;-71
2023/06/13 03:10:08;;;;;;;78.50;2.23;;;20.80;21.30;;;;;;4955776;28;20941;-68
2023/06/13 03:12:34;;;;;;;78.13;2.00;;;21.00;20.80;;;;;;4955375;28;20427;-69
2023/06/13 03:14:59;;;;;;;78.07;2.00;;;21.00;21.60;;;;;;4955296;28;20205;-69
2023/06/13 03:17:25;;;;;;;78.07;2.20;;;21.10;21.80;;;;;;4955535;28;20189;-69
2023/06/13 03:19:51;;;;;;;78.97;2.60;;;21.10;21.70;;;;;;4955202;28;20237;-73
2023/06/13 03:22:17;;;;;;;78.97;2.60;;;21.00;21.90;;;;;;4955419;28;20282;-69
2023/06/13 03:24:44;;;;;;;78.40;2.30;;;20.90;21.90;;;;;;4955124;28;20191;-68
2023/06/13 03:27:12;;;;;;;78.50;2.40;;;21.00;21.80;;;;;;4955429;28;20420;-69
2023/06/13 03:29:38;;;;;;;78.77;2.10;;;21.00;22.20;;;;;;4955156;28;20549;-70
2023/06/13 03:32:04;;;;;;;78.50;2.30;;;20.90;21.70;;;;;;4955633;28;20404;-69
2023/06/13 03:34:37;;;;;;;78.47;2.27;;;20.70;21.80;;;;;;4955385;28;20990;-70
2023/06/13 03:37:05;;;;;;;78.87;2.40;;;20.70;21.90;;;;;;4955080;28;20180;-69
2023/06/13 03:39:30;;;;;;;78.70;2.40;;;20.50;22.20;;;;;;4955321;28;20967;-70
2023/06/13 03:41:56;;;;;;;78.77;2.30;;;20.60;22.00;;;;;;4954714;28;20411;-70
2023/06/13 03:44:22;;;;;;;78.33;1.97;;;20.60;21.50;;;;;;4954342;29;20181;-71
2023/06/13 03:46:47;;;;;;;78.47;1.90;;;20.70;22.60;;;;;;4954741;28;20165;-69
2023/06/13 03:49:13;;;;;;;79.47;2.80;;;20.80;22.20;;;;;;4954995;28;20184;-69
2023/06/13 03:51:38;;;;;;;78.67;2.27;;;20.60;22.10;;;;;;4954831;28;20210;-70
2023/06/13 03:54:04;;;;;;;78.57;2.10;;;20.40;21.50;;;;;;4954609;28;20661;-70
2023/06/13 03:56:30;;;;;;;79.50;2.90;;;20.50;22.90;;;;;;4954561;28;20300;-74
2023/06/13 03:58:55;;;;;;;78.87;2.10;;;20.50;22.50;;;;;;4954584;28;20636;-69
2023/06/13 04:01:21;;;;;;;78.70;2.00;;;20.50;22.30;;;;;;4954839;28;20174;-70
2023/06/13 04:03:47;;;;;;;78.77;2.10;;;20.60;22.10;;;;;;4954403;28;20252;-70
2023/06/13 04:06:12;;;;;;;79.30;2.60;;;20.60;21.70;;;;;;4954344;28;20214;-70
2023/06/13 04:08:38;;;;;;;79.80;2.40;;;20.40;22.20;;;;;;4954502;28;20635;-69
2023/06/13 04:11:05;;;;;;;79.30;2.50;;;20.40;22.00;;;;;;4954622;28;20175;-73
2023/06/13 04:13:30;;;;;;;78.97;2.20;;;20.60;21.60;;;;;;4954196;28;20463;-70
2023/06/13 04:15:56;;;;;;;78.70;2.00;;;20.70;22.20;;;;;;4954147;28;20434;-74
2023/06/13 04:18:23;;;;;;;79.90;2.63;;;20.70;21.10;;;;;;4954418;28;20647;-70
2023/06/13 04:20:51;;;;;;;79.23;2.37;;;20.50;21.10;;;;;;4954206;28;20254;-71
2023/06/13 04:23:17;;;;;;;78.80;2.03;;;20.20;21.30;;;;;;4954076;28;20408;-71
2023/06/13 04:25:43;;;;;;;79.47;2.70;;;20.30;21.30;;;;;;4953988;28;20432;-70
2023/06/13 04:28:10;;;;;;;78.77;2.07;;;20.80;20.90;;;;;;4954199;28;20454;-72
2023/06/13 04:30:36;;;;;;;79.33;2.67;;;20.80;20.70;;;;;;4954255;28;20171;-70
2023/06/13 04:33:05;;;;;;;79.40;2.50;;;20.90;21.30;;;;;;4954059;28;20783;-69
2023/06/13 04:35:37;;;;;;;78.80;2.20;;;21.00;20.60;;;;;;4953547;28;20515;-70
2023/06/13 04:38:04;;;;;;;79.10;2.33;;;21.20;21.40;;;;;;4954060;28;20463;-70
2023/06/13 04:40:31;;;;;;;79.07;2.30;;;21.20;20.50;;;;;;4954411;28;20550;-70
2023/06/13 04:42:58;;;;;;;78.70;2.00;;;21.10;20.60;;;;;;4944605;28;20476;-74
2023/06/13 04:45:24;;;;;;;79.13;2.40;;;21.10;22.00;;;;;;4951825;29;20450;-73
2023/06/13 04:47:51;;;;;;;78.47;1.70;;;21.40;21.50;;;;;;4942297;29;20595;-70
2023/06/13 04:50:19;;;;;;;78.97;2.20;;;21.50;21.20;;;;;;4941279;29;20859;-70
2023/06/13 04:52:45;;;;;;;78.67;1.90;;;21.30;21.20;;;;;;4943095;28;20411;-69
2023/06/13 04:55:11;;;;;;;79.03;2.33;;;20.70;20.10;;;;;;4953409;28;20432;-69
2023/06/13 04:57:37;;;;;;;79.40;2.50;;;20.80;21.10;;;;;;4953576;28;20504;-70
2023/06/13 05:00:06;;;;;;;78.90;2.10;;;20.70;19.20;;;;;;4953666;28;20200;-70
2023/06/13 05:02:35;;;;;;;79.40;2.63;;;20.90;20.30;;;;;;4953812;28;20912;-69
2023/06/13 05:05:02;;;;;;;78.67;1.97;;;21.20;20.50;;;;;;4953017;28;20452;-70
2023/06/13 05:07:30;;;;;;;79.00;2.30;;;21.40;20.80;;;;;;4953983;28;20466;-74
2023/06/13 05:09:56;;;;;;;78.80;2.17;;;21.30;18.90;;;;;;4953864;28;20839;-73
2023/06/13 05:12:22;;;;;;;78.87;2.20;;;21.50;20.70;;;;;;4953751;28;20422;-69
2023/06/13 05:14:48;;;;;;;78.87;2.20;;;21.50;20.00;;;;;;4953072;28;20194;-70
2023/06/13 05:17:14;;;;;;;79.20;2.23;;;21.60;19.90;;;;;;4953840;28;20783;-71
2023/06/13 05:19:40;;;;;;;79.27;2.57;;;21.50;18.90;;;;;;4953154;28;20882;-71
2023/06/13 05:22:06;;;;;;;78.67;2.17;;;21.70;18.80;;;;;;4953546;28;20439;-74
2023/06/13 05:24:32;;;;;;;78.97;2.30;;;21.20;19.50;;;;;;4951884;29;20540;-70
2023/06/13 05:26:59;;;;;;;79.17;2.07;;;21.20;19.10;;;;;;4953358;28;20826;-70
2023/06/13 05:29:26;;;;;;;78.67;2.30;;;21.60;21.00;;;;;;4953211;28;20448;-70
2023/06/13 05:31:52;;;;;;;78.77;2.33;;;21.60;18.10;;;;;;4953381;28;20552;-70
2023/06/13 05:34:18;;;;;;;79.17;2.70;;;21.70;18.10;;;;;;4953408;28;20420;-69
2023/06/13 05:36:43;;;;;;;78.83;2.23;;;21.60;19.50;;;;;;4953131;28;20726;-72
2023/06/13 05:39:09;;;;;;;78.47;2.10;;;21.70;19.40;;;;;;4953281;28;20209;-70
2023/06/13 05:41:36;;;;;;;78.43;2.10;;;21.60;17.10;;;;;;4953328;28;20170;-70
2023/06/13 05:44:02;;;;;;;78.47;1.90;;;21.50;17.50;;;;;;4952999;28;20664;-69
2023/06/13 05:46:27;;;;;;;79.57;2.53;;;21.20;17.30;;;;;;4952941;28;20432;-70
2023/06/13 05:48:53;;;;;;;78.93;2.67;;;21.30;19.30;;;;;;4953375;28;20419;-70
2023/06/13 05:51:18;;;;;;;78.00;1.80;;;21.50;17.90;;;;;;4953339;28;20643;-73
2023/06/13 05:53:44;;;;;;;78.90;2.17;;;21.70;17.70;;;;;;4952926;28;20209;-70
2023/06/13 05:56:10;;;;;;;78.20;2.10;;;21.90;18.30;;;;;;4952968;28;20196;-70
2023/06/13 05:58:35;;;;;;;78.20;2.20;;;22.20;16.50;;;;;;4953379;28;20593;-70
2023/06/13 06:01:03;;;;;;;78.60;2.47;;;21.70;16.70;;;;;;4952885;29;20567;-71
2023/06/13 06:03:29;;;;;;;78.27;2.20;;;22.00;16.00;;;;;;4953304;28;20640;-71
2023/06/13 06:05:55;;;;;;;77.97;1.97;;;21.60;17.80;;;;;;4953333;28;20987;-70
2023/06/13 06:08:21;;;;;;;79.17;2.40;;;21.80;17.40;;;;;;4956905;28;20413;-70
2023/06/13 06:10:46;;;;;;;78.30;2.27;;;22.10;16.70;;;;;;4956862;28;20177;-69
2023/06/13 06:13:12;;;;;;;77.57;1.70;;;21.90;16.30;;;;;;4956670;28;20174;-70
2023/06/13 06:15:40;;;;;;;78.20;2.30;;;21.60;17.20;;;;;;4956253;28;20233;-70
2023/06/13 06:18:06;;;;;;;77.77;2.07;;;21.80;16.70;;;;;;4956719;28;20481;-70
2023/06/13 06:20:31;;;;;;;77.87;2.10;;;22.20;16.40;;;;;;4956516;28;20978;-72
2023/06/13 06:22:57;;;;;;;78.30;2.40;;;21.90;16.40;;;;;;4956483;28;20229;-70
2023/06/13 06:25:23;;;;;;;78.80;2.33;;;21.80;16.80;;;;;;4956062;28;20223;-70
2023/06/13 06:27:51;;;;;;;78.40;2.60;;;21.90;17.10;;;;;;4956251;28;20421;-70
2023/06/13 06:30:18;;;;;;;77.57;2.00;;;22.10;16.30;;;;;;4956500;28;20502;-70
2023/06/13 06:32:43;;;;;;;77.77;2.27;;;21.90;16.60;;;;;;4956328;28;20448;-72
2023/06/13 06:35:14;;;;;;;77.97;2.30;;;21.90;17.50;;;;;;4955912;28;20937;-70
2023/06/13 06:37:40;;;;;;;78.30;2.13;;;22.20;17.10;;;;;;4956169;28;20505;-72
2023/06/13 06:40:06;;;;;;;78.00;2.40;;;22.40;16.90;;;;;;4956053;28;20458;-73
2023/06/13 06:42:32;;;;;;;77.60;2.10;;;22.50;15.50;;;;;;4956092;28;20413;-71
2023/06/13 06:44:57;;;;;;;78.70;2.60;;;22.70;14.70;;;;;;4955847;28;21241;-70
2023/06/13 06:47:23;;;;;;;79.97;2.67;;;22.60;15.00;;;;;;4955969;28;20473;-71
2023/06/13 06:49:48;;;;;;;78.00;2.37;;;22.50;14.40;;;;;;4956122;28;20187;-70
2023/06/13 06:52:14;;;;;;;78.10;2.20;;;22.60;14.70;;;;;;4956369;28;20695;-70
2023/06/13 06:54:40;;;;;;;78.30;2.43;;;22.60;14.10;;;;;;4955499;28;20284;-74
2023/06/13 06:57:05;;;;;;;77.20;2.13;;;22.20;15.00;;;;;;4955793;28;20193;-70
2023/06/13 06:59:31;;;;;;;77.37;2.00;;;22.20;14.60;;;;;;4955901;28;20206;-69
2023/06/13 07:01:57;;;;;;;79.90;2.50;;;22.20;16.00;;;;;;4956069;28;20179;-70
2023/06/13 07:04:23;;;;;;;77.40;2.03;;;22.30;15.10;;;;;;4955721;28;20176;-70
2023/06/13 07:06:49;;;;;;;77.60;2.50;;;22.10;16.30;;;;;;4955310;28;20186;-70
2023/06/13 07:09:14;;;;;;;77.43;2.07;;;22.50;15.20;;;;;;4955687;28;20424;-74
2023/06/13 07:11:40;;;;;;;77.40;2.33;;;22.70;16.40;;;;;;4988191;23;20217;-72
2023/06/13 07:14:06;;;;;;;77.17;2.20;;;22.60;15.50;;;;;;4950745;28;20446;-68
2023/06/13 07:16:31;;;;;;;77.30;2.50;;;22.40;14.40;;;;;;4955227;28;20168;-68
2023/06/13 07:18:57;;;;;;;76.97;1.97;;;22.40;15.10;;;;;;4954081;28;20262;-69
2023/06/13 07:21:23;;;;;;;78.97;2.70;;;22.40;14.70;;;;;;4954802;28;20180;-71
2023/06/13 07:23:48;;;;;;;77.63;2.47;;;22.60;15.10;;;;;;4936154;29;20276;-69
2023/06/13 07:26:14;;;;;;;77.17;2.17;;;22.80;14.90;;;;;;4936051;29;20194;-71
2023/06/13 07:28:40;;;;;;;77.03;2.20;;;23.00;15.20;;;;;;4936061;29;20202;-68
2023/06/13 07:31:06;;;;;;;76.97;2.30;;;22.90;13.90;;;;;;4936239;29;20439;-68
2023/06/13 07:33:32;;;;;;;76.87;2.27;;;22.70;14.40;;;;;;4935778;29;20228;-69
2023/06/13 07:35:57;;;;;;;76.67;2.00;;;22.80;13.90;;;;;;4935873;29;20176;-69
2023/06/13 07:38:25;;;;;;;77.17;2.50;;;22.70;14.20;;;;;;4935871;29;20206;-72
2023/06/13 07:40:50;;;;;;;77.30;2.47;;;22.80;14.30;;;;;;4935867;29;20670;-69
2023/06/13 07:43:16;;;;;;;76.90;2.17;;;22.90;14.30;;;;;;4935911;29;20467;-69
2023/06/13 07:45:42;;;;;;;76.60;2.10;;;23.40;14.50;;;;;;4935701;29;20175;-69
2023/06/13 07:48:07;;;;;;;76.47;2.13;;;23.30;13.00;;;;;;4936135;29;20202;-69
2023/06/13 07:50:34;;;;;;;76.80;2.30;;;23.20;13.00;;;;;;4935822;29;20176;-69
2023/06/13 07:53:00;;;;;;;76.47;2.00;;;23.50;12.50;;;;;;4935496;29;20685;-69
2023/06/13 07:55:26;;;;;;;76.47;2.10;;;23.50;13.60;;;;;;4935395;29;20422;-72
2023/06/13 07:57:51;;;;;;;76.57;2.30;;;23.60;12.70;;;;;;4935266;29;20414;-71
2023/06/13 08:00:18;;;;;;;76.17;2.00;;;23.60;12.40;;;;;;4935660;29;20454;-69
2023/06/13 08:02:46;;;;;;;76.57;2.23;;;23.20;11.80;;;;;;4935383;29;20205;-72
2023/06/13 08:05:13;;;;;;;76.60;2.30;;;23.20;13.40;;;;;;4935283;29;20413;-69
2023/06/13 08:07:39;;;;;;;76.53;2.10;;;23.30;12.90;;;;;;4935048;29;20402;-69
2023/06/13 08:10:06;;;;;;;78.97;2.73;;;23.50;13.10;;;;;;4935401;29;20507;-69
2023/06/13 08:12:32;;;;;;;76.57;2.40;;;23.90;13.20;;;;;;4935218;29;20453;-72
2023/06/13 08:14:58;;;;;;;76.23;2.10;;;24.10;13.20;;;;;;4934978;29;20852;-69
2023/06/13 08:17:26;;;;;;;76.50;2.20;;;24.00;12.90;;;;;;4935385;29;20423;-71
2023/06/13 08:19:52;;;;;;;77.00;2.67;;;24.00;11.70;;;;;;4934785;29;20274;-72
2023/06/13 08:22:18;;;;;;;76.33;2.20;;;24.30;11.20;;;;;;4935334;29;20924;-69
2023/06/13 08:24:44;;;;;;;76.27;2.30;;;24.20;11.30;;;;;;4934861;29;20172;-69
2023/06/13 08:27:10;;;;;;;75.97;1.97;;;24.20;11.10;;;;;;4935153;29;20187;-69
2023/06/13 08:29:36;;;;;;;75.90;2.20;;;24.00;11.30;;;;;;4933272;29;20415;-69
2023/06/13 08:32:02;;;;;;;76.60;2.60;;;24.30;11.60;;;;;;4935015;29;20198;-69
2023/06/13 08:34:28;;;;;;;76.00;2.17;;;24.60;11.50;;;;;;4935053;29;20497;-68
2023/06/13 08:36:54;;;;;;;76.07;2.10;;;24.90;11.60;;;;;;4934514;29;20852;-69
2023/06/13 08:39:22;;;;;;;76.43;2.50;;;24.60;9.90;;;;;;4934983;29;20200;-69
2023/06/13 08:41:49;;;;;;;76.30;2.20;;;24.70;10.40;;;;;;4934878;29;20821;-69
2023/06/13 08:44:16;;;;;;;76.17;2.50;;;24.70;10.50;;;;;;4934895;29;20447;-69
2023/06/13 08:46:42;;;;;;;76.60;2.20;;;25.00;10.40;;;;;;4934577;29;20416;-69
2023/06/13 08:49:09;;;;;;;75.67;2.20;;;24.90;9.20;;;;;;4934745;29;20544;-69
2023/06/13 08:51:36;;;;;;;75.63;2.10;;;24.60;10.60;;;;;;4934312;29;20230;-68
2023/06/13 08:54:05;;;;;;;75.50;2.10;;;25.00;11.70;;;;;;4934643;29;20438;-69
2023/06/13 08:56:40;;;;;;;75.50;2.20;;;25.00;11.20;;;;;;4934421;29;20418;-69
2023/06/13 08:59:17;;;;;;;76.00;2.53;;;25.00;11.70;;;;;;4934860;29;20490;-69
2023/06/13 09:01:44;;;;;;;75.87;2.13;;;24.90;11.10;;;;;;4933586;29;20435;-69
2023/06/13 09:04:11;;;;;;;75.50;2.20;;;24.70;11.40;;;;;;4933247;29;20411;-71
2023/06/13 09:06:37;;;;;;;75.50;2.17;;;24.80;12.00;;;;;;4932791;29;20422;-69
2023/06/13 09:09:06;;;;;;;87.80;2.43;;;25.40;10.70;;;;;;4933044;29;20589;-69
2023/06/13 09:11:36;;;;;;;75.37;2.40;;;25.80;11.20;;;;;;4933617;29;20446;-70
2023/06/13 09:14:06;;;;;;;76.97;2.83;;;25.90;9.30;;;;;;4933345;29;20949;-69
2023/06/13 09:16:32;;;;;;;75.63;2.30;;;25.80;10.40;;;;;;4933033;29;20415;-69
2023/06/13 09:18:59;;;;;;;75.80;2.43;;;25.40;11.10;;;;;;4933461;29;20422;-69
2023/06/13 09:21:25;;;;;;;76.77;2.73;;;25.30;10.90;;;;;;4933952;29;20455;-68
2023/06/13 09:23:54;;;;;;;75.80;2.17;;;25.50;9.80;;;;;;4933686;29;20864;-68
2023/06/13 09:26:20;;;;;;;75.27;2.30;;;25.40;10.00;;;;;;4933779;29;20412;-70
2023/06/13 09:28:49;;;;;;;75.60;2.50;;;25.80;9.50;;;;;;4933213;29;20430;-70
2023/06/13 09:31:15;;;;;;;75.90;2.10;;;25.90;9.80;;;;;;4934056;29;20423;-69
2023/06/13 09:33:43;;;;;;;74.90;2.27;;;26.10;9.60;;;;;;4933615;29;20434;-69
2023/06/13 09:36:09;;;;;;;76.27;2.50;;;25.80;9.20;;;;;;4933995;29;20416;-69
2023/06/13 09:38:37;;;;;;;75.87;2.60;;;26.00;9.00;;;;;;4932959;29;20427;-69
2023/06/13 09:41:04;;;;;;;75.20;2.43;;;25.90;8.90;;;;;;4935189;29;21047;-69
2023/06/13 09:43:30;;;;;;;74.37;2.10;;;25.70;8.30;;;;;;4937888;29;20431;-71
2023/06/13 09:45:56;;;;;;;74.87;2.40;;;25.90;9.60;;;;;;4937733;29;20860;-71
2023/06/13 09:48:22;;;;;;;74.90;2.23;;;26.20;8.00;;;;;;4938079;29;20497;-72
2023/06/13 09:50:51;;;;;;;75.07;2.50;;;26.40;8.80;;;;;;4938158;29;20599;-72
2023/06/13 09:53:17;;;;;;;75.47;2.70;;;26.00;8.40;;;;;;4937731;29;20509;-69
2023/06/13 09:55:43;;;;;;;74.80;2.50;;;26.40;7.80;;;;;;4937497;29;20420;-69
2023/06/13 09:58:09;;;;;;;74.40;2.03;;;26.10;7.80;;;;;;4937823;29;20905;-69
2023/06/13 10:00:35;;;;;;;74.67;2.40;;;26.30;6.30;;;;;;4937524;29;20200;-70
2023/06/13 10:03:02;;;;;;;74.57;2.30;;;26.30;6.20;;;;;;4937774;29;20195;-69
2023/06/13 10:05:28;;;;;;;75.10;2.40;;;28.10;8.00;;;;;;4937505;29;20415;-69
2023/06/13 10:07:55;;;;;;;74.07;2.10;;;25.90;6.70;;;;;;4937415;29;20420;-69
2023/06/13 10:10:21;;;;;;;74.17;2.20;;;26.30;6.10;;;;;;4937644;29;20427;-72
2023/06/13 10:13:00;;;;;;;73.87;2.10;;;26.90;6.60;;;;;;4937250;29;20534;-72
2023/06/13 10:15:50;;;;;;;73.80;2.23;;;27.20;7.90;;;;;;4937230;29;20426;-69
2023/06/13 10:18:20;;;;;;;74.13;2.20;;;26.70;5.80;;;;;;4936612;29;20482;-69
2023/06/13 10:20:48;;;;;;;73.57;2.00;;;26.50;6.50;;;;;;4937038;29;20443;-69
2023/06/13 10:23:18;;;;;;;74.40;2.47;;;26.30;7.20;;;;;;4937309;29;20439;-69
2023/06/13 10:25:47;;;;;;;73.53;1.90;;;26.70;6.80;;;;;;4936979;29;20485;-70
2023/06/13 10:28:56;;;;;;;73.90;2.13;;;26.80;6.70;;;;;;4937359;29;20953;-69
2023/06/13 10:31:53;;;;;;;73.77;2.27;;;27.20;5.80;;;;;;4916410;29;20426;-69
2023/06/13 10:34:56;;;;;;;73.47;2.00;;;27.20;5.90;;;;;;4936822;29;20427;-69
2023/06/13 10:37:53;;;;;;;78.47;2.80;;;27.10;5.30;;;;;;4937154;29;20399;-71
2023/06/13 10:40:51;;;;;;;73.37;2.00;;;26.90;6.20;;;;;;4937044;29;20550;-69
2023/06/13 10:43:16;;;;;;;73.60;2.40;;;27.10;5.40;;;;;;4936871;29;20432;-69
2023/06/13 10:45:45;;;;;;;73.40;2.33;;;27.70;5.70;;;;;;4936546;29;20462;-69
2023/06/13 10:48:11;;;;;;;73.40;2.17;;;27.50;5.40;;;;;;4936805;29;20174;-69
2023/06/13 10:50:39;;;;;;;73.13;1.80;;;27.80;5.70;;;;;;4936761;29;20412;-69
2023/06/13 10:53:07;;;;;;;72.73;2.00;;;28.20;4.70;;;;;;4935427;29;20440;-69
2023/06/13 10:55:38;;;;;;;72.87;2.20;;;28.30;6.10;;;;;;4936352;29;20447;-70
2023/06/13 10:58:12;;;;;;;72.60;1.87;;;28.60;4.20;;;;;;4936912;29;20917;-69
2023/06/13 11:00:39;;;;;;;72.37;2.00;;;28.60;3.90;;;;;;4936424;29;21033;-70
2023/06/13 11:03:15;;;;;;;72.60;2.30;;;28.30;4.90;;;;;;4936865;29;20431;-69
2023/06/13 11:05:49;;;;;;;72.83;2.27;;;28.20;4.90;;;;;;4936222;29;20936;-70
2023/06/13 11:08:25;;;;;;;72.77;2.30;;;28.40;5.00;;;;;;4936686;29;20407;-70
2023/06/13 11:10:52;;;;;;;76.07;2.37;;;28.30;3.30;;;;;;4936524;29;20502;-70
2023/06/13 11:13:23;;;;;;;72.60;2.37;;;28.50;4.50;;;;;;4936234;29;20446;-70
2023/06/13 11:15:53;;;;;;;71.67;1.80;;;29.10;4.20;;;;;;4936059;29;20427;-70
2023/06/13 11:18:19;;;;;;;72.03;2.10;;;29.10;4.70;;;;;;4936444;29;20945;-69
2023/06/13 11:20:54;;;;;;;72.00;2.10;;;29.20;6.30;;;;;;4935936;29;20537;-71
2023/06/13 11:23:44;;;;;;;72.37;2.33;;;29.40;5.80;;;;;;4936336;29;20665;-70
2023/06/13 11:26:11;;;;;;;71.80;2.13;;;29.70;5.00;;;;;;4935257;29;20399;-70
2023/06/13 11:28:37;;;;;;;71.80;2.17;;;29.70;5.30;;;;;;4935397;29;20410;-70
2023/06/13 11:31:05;;;;;;;71.80;2.00;;;30.20;3.30;;;;;;4934194;29;20868;-72
2023/06/13 11:33:36;;;;;;;71.97;1.90;;;31.00;4.70;;;;;;4934175;29;20317;-71
2023/06/13 11:36:03;;;;;;;71.97;2.13;;;32.40;2.00;;;;;;4934858;29;20430;-70
2023/06/13 11:38:41;;;;;;;72.17;1.90;;;33.30;1.00;;;;;;4935278;29;20797;-73
2023/06/13 11:41:07;;;;;;;72.10;2.20;;;33.30;1.00;;;;;;4935514;29;20443;-71
2023/06/13 11:43:34;;;;;;;70.60;1.60;;;33.60;1.00;;;;;;4935674;29;20438;-71
2023/06/13 11:46:02;;;;;;;70.60;1.90;;;33.70;1.00;;;;;;4935580;29;20172;-70
2023/06/13 11:48:28;;;;;;;70.77;1.97;;;33.80;1.00;;;;;;4935773;29;20412;-70
2023/06/13 11:51:16;;;;;;;70.57;1.80;;;33.80;1.00;;;;;;4935775;29;20446;-70
2023/06/13 11:53:53;;;;;;;70.03;1.80;;;34.60;1.00;;;;;;4935880;29;20558;-71
2023/06/13 11:56:20;;;;;;;69.60;1.87;;;35.30;1.00;;;;;;4935489;29;20798;-70
2023/06/13 11:58:47;;;;;;;69.00;1.80;;;35.80;1.00;;;;;;4935597;29;20420;-70
2023/06/13 12:01:14;;;;;;;68.80;2.07;;;35.80;1.00;;;;;;4935428;29;20451;-71
2023/06/13 12:03:40;;;;;;;82.03;2.43;;;36.70;1.00;;;;;;4934825;29;20444;-71
2023/06/13 12:06:07;;;;;;;67.17;1.80;;;36.60;1.00;;;;;;4935373;29;20412;-70
2023/06/13 12:08:38;;;;;;;66.57;1.80;;;36.40;1.00;;;;;;4935283;29;20403;-70
2023/06/13 12:11:09;;;;;;;66.17;1.80;;;36.30;1.00;;;;;;4935516;29;20411;-71
2023/06/13 12:13:34;;;;;;;66.20;1.97;;;36.20;1.00;;;;;;4934977;29;20858;-71
2023/06/13 12:16:00;;;;;;;65.60;1.80;;;36.10;1.00;;;;;;4935070;29;20423;-71
2023/06/13 12:18:30;;;;;;;66.80;2.40;;;37.10;1.00;;;;;;4935253;29;20546;-70
2023/06/13 12:20:57;;;;;;;65.77;2.20;;;36.20;1.00;;;;;;4935036;29;20187;-70
2023/06/13 12:23:24;;;;;;;65.40;2.00;;;35.40;1.00;;;;;;4935227;29;20435;-70
2023/06/13 12:25:50;;;;;;;65.00;1.80;;;35.60;1.00;;;;;;4934899;29;20483;-73
2023/06/13 12:28:17;;;;;;;65.00;1.90;;;36.10;1.00;;;;;;4935026;29;20498;-71
2023/06/13 12:30:45;;;;;;;65.23;1.80;;;35.70;1.00;;;;;;4934995;29;20431;-73
2023/06/13 12:33:18;;;;;;;64.73;1.70;;;35.70;1.00;;;;;;4935336;29;20447;-71
2023/06/13 12:35:56;;;;;;;64.87;1.80;;;36.20;1.00;;;;;;4934585;29;20416;-74
2023/06/13 12:38:28;;;;;;;64.30;1.57;;;36.50;1.00;;;;;;4935067;29;20407;-70
2023/06/13 12:40:54;;;;;;;64.80;2.00;;;36.30;1.00;;;;;;4934811;29;20534;-70
2023/06/13 12:43:29;;;;;;;67.70;1.90;;;36.00;1.00;;;;;;4934937;29;20462;-73
2023/06/13 12:45:56;;;;;;;64.60;1.90;;;36.70;1.00;;;;;;4934344;29;20494;-71